Airfield :
LOGIN :

Register | Disclaimer

   EN    FR    IT 

 










Legend :    VFR   Marginal VFR   IFR   Intensive IFR   Very Intensive IFR
Visi :
Ceiling :
>= 8 km
>= 3000ft
5 to 8 km
1000 to 3000 ft
1500m to 5 km
500 to 1000 ft
800 to 1500m
200 to 500 ft
< 800m
< 200 ft
Symbols :   Thunderstorms  Fog  Heavy snow  Heavy precipitations  Wind > 20 kt
SIGMETs :     Misc.  Thunderstorms  Icing  Turbulence  Mountain Waves  Volcanic Ashes







- Airport Elevation : 39 ft
- IATA code : ANR


EBAW - Anvers / Antwerpen Deurne

CURRENT METAR :
  • 211020Z 24004KT CAVOK 04/02 Q1017 NOSIG

EXPIRED METARs :
  • 210950Z 24004KT CAVOK 03/01 Q1016 NOSIG
  • 210920Z 24003KT CAVOK 02/01 Q1016 NOSIG
  • 210850Z 24004KT 210V270 CAVOK 02/01 Q1016 NOSIG
  • 210820Z 23003KT 210V270 9999 FEW020 02/00 Q1015 NOSIG
  • 210750Z 24005KT 9999 FEW020 02/00 Q1015 NOSIG

TAF TAF EBAW
Valid from the 21 at 09:00 until the 21 at 18:00 UTC


210820Z 2109/2118 22005KT CAVOK
No reported NOTAMs for that airfield.



MET'MAP, your aeronautical weather chart ! - Copyright ORBIFLY December 2007 - Disclaimer

ORBIFLY MET'MAP TEAM :

Programming & Development : Alexandra Zaïnal
Concept & Development : Baudouin d'Aumeries
Co-Development & Prog : Marc-Olivier Méhu
Technical & hardware support : Manuel Goepfert

Contact : metmap@orbifly.com




SOURCES & CREDITS :

   NOAA